Time,TemperatureF,DewpointF,PressureIn,WindDirection,WindDirectionDegrees,WindSpeedMPH,WindSpeedGustMPH,Humidity,HourlyPrecipIn,Conditions,Clouds,dailyrainin,SoftwareType,DateUTC
2013-03-06 00:01:00,26.4,23.4,29.86,NNE,18,15.1,26.3,88,0.00,,,0.00,VWS V14.01,2013-03-06 05:01:00,
2013-03-06 00:02:00,26.4,23.4,29.86,North,8,8.7,26.3,88,0.00,,,0.00,VWS V14.01,2013-03-06 05:02:00,
2013-03-06 00:03:00,26.2,23.2,29.86,North,6,13.8,25.2,88,0.00,,,0.00,VWS V14.01,2013-03-06 05:03:00,
2013-03-06 00:04:00,26.2,23.2,29.86,North,11,6.0,26.3,88,0.00,,,0.00,VWS V14.01,2013-03-06 05:04:00,
2013-03-06 00:12:00,26.2,22.9,29.89,NNE,14,22.5,37.5,87,0.00,,,0.00,VWS V14.01,2013-03-06 05:12:00,
2013-03-06 00:17:00,26.2,22.9,29.89,NNE,26,8.1,13.4,87,0.00,,,0.00,VWS V14.01,2013-03-06 05:17:00,
2013-03-06 00:22:00,26.2,22.9,29.89,NNE,19,11.4,20.7,87,0.00,,,0.00,VWS V14.01,2013-03-06 05:22:00,
2013-03-06 00:28:00,26.2,22.6,29.89,NNE,29,8.7,19.0,86,0.00,,,0.00,VWS V14.01,2013-03-06 05:28:00,
2013-03-06 00:34:00,26.2,22.6,29.89,NNE,18,21.8,36.4,86,0.00,,,0.00,VWS V14.01,2013-03-06 05:34:00,
2013-03-06 00:39:00,26.1,22.5,29.89,North,357,8.7,30.8,86,0.00,,,0.00,VWS V14.01,2013-03-06 05:39:00,
2013-03-06 00:45:00,26.1,22.2,29.89,NNE,16,15.8,39.7,85,0.00,,,0.00,VWS V14.01,2013-03-06 05:45:00,
2013-03-06 00:51:00,26.1,22.2,29.89,NNW,327,12.1,30.8,85,0.00,,,0.00,VWS V14.01,2013-03-06 05:51:00,
2013-03-06 00:56:00,26.1,22.2,29.89,NNE,12,22.5,37.5,85,0.00,,,0.00,VWS V14.01,2013-03-06 05:56:00,
2013-03-06 01:01:00,26.1,21.9,29.89,North,5,8.7,20.1,84,0.00,,,0.00,VWS V14.01,2013-03-06 06:01:00,
2013-03-06 01:07:00,26.1,21.9,29.89,NNW,343,15.8,26.3,84,0.00,,,0.00,VWS V14.01,2013-03-06 06:07:00,
2013-03-06 01:13:00,26.1,21.9,29.89,North,11,14.4,29.6,84,0.00,,,0.00,VWS V14.01,2013-03-06 06:13:00,
2013-03-06 01:18:00,26.1,21.6,29.89,NE,35,7.4,12.3,83,0.00,,,0.00,VWS V14.01,2013-03-06 06:18:00,
2013-03-06 01:24:00,26.1,21.6,29.89,North,10,11.4,21.8,83,0.00,,,0.00,VWS V14.01,2013-03-06 06:24:00,
2013-03-06 01:31:00,26.1,21.6,29.89,NNE,26,6.0,16.8,83,0.00,,,0.00,VWS V14.01,2013-03-06 06:31:00,
2013-03-06 01:36:00,26.1,21.3,29.89,NNE,26,8.1,13.4,82,0.00,,,0.00,VWS V14.01,2013-03-06 06:36:00,
2013-03-06 01:42:00,26.2,21.5,29.89,NNE,32,12.1,34.1,82,0.00,,,0.00,VWS V14.01,2013-03-06 06:42:00,
2013-03-06 01:48:00,26.1,21.3,29.92,North,357,4.7,12.3,82,0.00,,,0.00,VWS V14.01,2013-03-06 06:48:00,
2013-03-06 01:53:00,26.2,21.2,29.92,NNE,31,8.1,14.5,81,0.00,,,0.00,VWS V14.01,2013-03-06 06:53:00,
2013-03-06 01:58:00,26.2,21.2,29.92,NNE,24,11.4,20.7,81,0.00,,,0.00,VWS V14.01,2013-03-06 06:58:00,
2013-03-06 02:03:00,26.2,21.2,29.92,North,357,5.4,19.0,81,0.00,,,0.00,VWS V14.01,2013-03-06 07:03:00,
2013-03-06 02:09:00,26.2,21.2,29.92,NE,36,6.0,10.1,81,0.00,,,0.00,VWS V14.01,2013-03-06 07:09:00,
2013-03-06 02:16:00,26.4,21.4,29.92,North,357,4.7,20.1,81,0.00,,,0.00,VWS V14.01,2013-03-06 07:16:00,
2013-03-06 02:21:00,26.4,21.4,29.92,NNE,31,6.0,20.7,81,0.00,,,0.00,VWS V14.01,2013-03-06 07:21:00,
2013-03-06 02:27:00,26.4,21.1,29.92,North,353,8.1,20.7,80,0.00,,,0.00,VWS V14.01,2013-03-06 07:27:00,
2013-03-06 02:33:00,26.6,21.3,29.92,North,357,6.0,12.3,80,0.00,,,0.00,VWS V14.01,2013-03-06 07:33:00,
2013-03-06 02:38:00,26.6,21.3,29.92,NNE,12,4.7,12.3,80,0.00,,,0.00,VWS V14.01,2013-03-06 07:38:00,
2013-03-06 02:44:00,26.6,21.3,29.92,NNE,16,4.7,8.9,80,0.00,,,0.00,VWS V14.01,2013-03-06 07:44:00,
2013-03-06 02:49:00,26.6,21.3,29.92,NNE,16,7.4,12.3,80,0.00,,,0.00,VWS V14.01,2013-03-06 07:49:00,
2013-03-06 02:54:00,26.8,21.1,29.92,NNE,17,5.4,13.4,79,0.00,,,0.00,VWS V14.01,2013-03-06 07:54:00,
2013-03-06 02:59:00,26.8,21.1,29.92,North,5,7.4,15.7,79,0.00,,,0.00,VWS V14.01,2013-03-06 07:59:00,
2013-03-06 03:05:00,26.8,21.1,29.92,North,357,5.4,10.1,79,0.00,,,0.00,VWS V14.01,2013-03-06 08:05:00,
2013-03-06 03:11:00,26.8,21.1,29.92,North,6,4.0,10.1,79,0.00,,,0.00,VWS V14.01,2013-03-06 08:11:00,
2013-03-06 03:16:00,27.0,21.3,29.92,North,8,7.4,14.5,79,0.00,,,0.00,VWS V14.01,2013-03-06 08:16:00,
2013-03-06 03:21:00,27.0,21.3,29.92,North,357,4.7,10.1,79,0.00,,,0.00,VWS V14.01,2013-03-06 08:21:00,
2013-03-06 03:27:00,27.0,21.3,29.92,North,8,6.0,14.5,79,0.00,,,0.00,VWS V14.01,2013-03-06 08:27:00,
2013-03-06 03:33:00,27.0,21.3,29.92,North,4,4.7,10.1,79,0.00,,,0.00,VWS V14.01,2013-03-06 08:33:00,
2013-03-06 03:39:00,27.0,21.3,29.92,NNW,339,6.0,16.8,79,0.00,,,0.00,VWS V14.01,2013-03-06 08:39:00,
2013-03-06 03:44:00,27.0,21.3,29.95,NW,320,6.0,12.3,79,0.00,,,0.00,VWS V14.01,2013-03-06 08:44:00,
2013-03-06 03:50:00,27.1,21.8,29.95,North,11,9.4,19.0,80,0.00,,,0.00,VWS V14.01,2013-03-06 08:50:00,
2013-03-06 03:56:00,27.1,21.8,29.95,North,4,8.1,14.5,80,0.00,,,0.00,VWS V14.01,2013-03-06 08:56:00,
2013-03-06 04:01:00,27.1,21.8,29.95,NNE,19,4.0,14.5,80,0.00,,,0.00,VWS V14.01,2013-03-06 09:01:00,
2013-03-06 04:07:00,27.1,21.8,29.95,NNE,17,8.7,14.5,80,0.00,,,0.00,VWS V14.01,2013-03-06 09:07:00,
2013-03-06 04:12:00,27.1,21.8,29.95,North,357,7.4,14.5,80,0.00,,,0.00,VWS V14.01,2013-03-06 09:12:00,
2013-03-06 04:17:00,27.5,21.9,29.95,NNE,24,4.7,15.7,79,0.00,,,0.00,VWS V14.01,2013-03-06 09:17:00,
2013-03-06 04:22:00,27.5,21.9,29.95,North,6,8.1,15.7,79,0.00,,,0.00,VWS V14.01,2013-03-06 09:22:00,
2013-03-06 04:28:00,27.5,21.9,29.95,NNE,13,8.7,15.7,79,0.00,,,0.00,VWS V14.01,2013-03-06 09:28:00,
2013-03-06 04:33:00,27.5,21.9,29.95,North,0,8.1,19.0,79,0.00,,,0.00,VWS V14.01,2013-03-06 09:33:00,
2013-03-06 04:38:00,27.5,21.9,29.95,North,357,4.7,17.9,79,0.00,,,0.00,VWS V14.01,2013-03-06 09:38:00,
2013-03-06 04:43:00,27.5,21.9,29.95,North,5,7.4,14.5,79,0.00,,,0.00,VWS V14.01,2013-03-06 09:43:00,
2013-03-06 04:49:00,27.5,21.9,29.95,NNE,15,8.1,15.7,79,0.00,,,0.00,VWS V14.01,2013-03-06 09:49:00,
2013-03-06 04:54:00,27.9,22.2,29.95,North,2,8.7,17.9,79,0.00,,,0.00,VWS V14.01,2013-03-06 09:54:00,
2013-03-06 05:01:00,27.9,22.2,29.95,North,2,6.0,14.5,79,0.00,,,0.00,VWS V14.01,2013-03-06 10:01:00,
2013-03-06 05:06:00,27.9,22.2,29.95,NNE,14,8.1,19.0,79,0.00,,,0.00,VWS V14.01,2013-03-06 10:06:00,
2013-03-06 05:12:00,27.9,22.2,29.98,East,91,8.7,15.7,79,0.00,,,0.00,VWS V14.01,2013-03-06 10:12:00,
2013-03-06 05:18:00,27.9,22.2,29.98,North,10,9.4,15.7,79,0.00,,,0.00,VWS V14.01,2013-03-06 10:18:00,
2013-03-06 05:23:00,27.9,22.2,29.98,NNE,19,5.4,12.3,79,0.00,,,0.00,VWS V14.01,2013-03-06 10:23:00,
2013-03-06 05:28:00,27.9,22.2,29.98,North,5,8.7,15.7,79,0.00,,,0.00,VWS V14.01,2013-03-06 10:28:00,
2013-03-06 05:33:00,27.9,22.2,29.98,North,357,7.4,17.9,79,0.00,,,0.00,VWS V14.01,2013-03-06 10:33:00,
2013-03-06 05:39:00,27.9,22.2,29.98,North,9,8.1,15.7,79,0.00,,,0.00,VWS V14.01,2013-03-06 10:39:00,
2013-03-06 05:44:00,27.9,22.2,29.98,North,8,8.7,15.7,79,0.00,,,0.00,VWS V14.01,2013-03-06 10:44:00,
2013-03-06 05:49:00,27.9,22.2,29.98,North,357,5.4,8.9,79,0.00,,,0.00,VWS V14.01,2013-03-06 10:49:00,
2013-03-06 05:56:00,27.9,22.2,30.01,North,0,6.0,15.7,79,0.00,,,0.00,VWS V14.01,2013-03-06 10:56:00,
2013-03-06 06:01:00,27.9,22.2,30.01,North,8,5.4,10.1,79,0.00,,,0.00,VWS V14.01,2013-03-06 11:01:00,
2013-03-06 06:07:00,27.9,22.2,30.01,North,357,6.0,13.4,79,0.00,,,0.00,VWS V14.01,2013-03-06 11:07:00,
2013-03-06 06:13:00,27.9,22.2,30.01,North,357,4.0,13.4,79,0.00,,,0.00,VWS V14.01,2013-03-06 11:13:00,
2013-03-06 06:18:00,27.9,22.2,30.01,NNW,343,4.7,10.1,79,0.00,,,0.00,VWS V14.01,2013-03-06 11:18:00,
2013-03-06 06:23:00,27.9,22.2,30.01,North,6,6.0,10.1,79,0.00,,,0.00,VWS V14.01,2013-03-06 11:23:00,
2013-03-06 06:28:00,27.9,22.2,30.01,North,11,8.7,19.0,79,0.00,,,0.00,VWS V14.01,2013-03-06 11:28:00,
2013-03-06 06:33:00,27.9,22.2,30.01,NNW,346,4.0,7.8,79,0.00,,,0.00,VWS V14.01,2013-03-06 11:33:00,
2013-03-06 06:38:00,27.9,22.2,30.01,North,357,8.1,13.4,79,0.00,,,0.00,VWS V14.01,2013-03-06 11:38:00,
2013-03-06 06:44:00,27.9,22.2,30.04,North,353,6.0,12.3,79,0.00,,,0.00,VWS V14.01,2013-03-06 11:44:00,
2013-03-06 06:50:00,27.9,22.2,30.04,North,0,5.4,14.5,79,0.00,,,0.00,VWS V14.01,2013-03-06 11:50:00,
2013-03-06 06:56:00,27.9,22.2,30.04,NNW,341,6.0,12.3,79,0.00,,,0.00,VWS V14.01,2013-03-06 11:56:00,
2013-03-06 07:01:00,27.9,22.2,30.04,North,357,6.0,12.3,79,0.00,,,0.00,VWS V14.01,2013-03-06 12:01:00,
2013-03-06 07:07:00,27.9,22.2,30.04,North,5,6.0,10.1,79,0.00,,,0.00,VWS V14.01,2013-03-06 12:07:00,
2013-03-06 07:13:00,27.9,22.2,30.04,North,2,4.7,13.4,79,0.00,,,0.00,VWS V14.01,2013-03-06 12:13:00,
2013-03-06 07:18:00,27.9,22.2,30.04,NW,315,4.0,14.5,79,0.00,,,0.00,VWS V14.01,2013-03-06 12:18:00,
2013-03-06 07:24:00,27.9,22.2,30.04,North,353,5.4,13.4,79,0.00,,,0.00,VWS V14.01,2013-03-06 12:24:00,
2013-03-06 07:29:00,27.9,22.2,30.07,NW,321,5.4,10.1,79,0.00,,,0.00,VWS V14.01,2013-03-06 12:29:00,
2013-03-06 07:34:00,27.9,22.2,30.07,NNW,335,4.0,8.9,79,0.00,,,0.00,VWS V14.01,2013-03-06 12:34:00,
2013-03-06 07:40:00,27.9,22.2,30.07,NNW,331,4.7,8.9,79,0.00,,,0.00,VWS V14.01,2013-03-06 12:40:00,
2013-03-06 07:46:00,27.9,22.2,30.07,NW,321,7.4,12.3,79,0.00,,,0.00,VWS V14.01,2013-03-06 12:46:00,
2013-03-06 07:51:00,28.6,22.9,30.07,North,0,6.0,10.1,79,0.00,,,0.00,VWS V14.01,2013-03-06 12:51:00,
2013-03-06 07:56:00,28.9,23.3,30.07,North,0,6.0,10.1,79,0.00,,,0.00,VWS V14.01,2013-03-06 12:56:00,
2013-03-06 08:02:00,29.1,23.4,30.07,NNW,345,7.4,13.4,79,0.00,,,0.00,VWS V14.01,2013-03-06 13:02:00,
2013-03-06 08:08:00,29.3,23.6,30.07,NNW,333,4.0,7.8,79,0.00,,,0.00,VWS V14.01,2013-03-06 13:08:00,
2013-03-06 08:13:00,29.5,23.8,30.07,NW,316,7.4,12.3,79,0.00,,,0.00,VWS V14.01,2013-03-06 13:13:00,
2013-03-06 08:19:00,29.7,24.0,30.07,NNW,329,5.4,8.9,79,0.00,,,0.00,VWS V14.01,2013-03-06 13:19:00,
2013-03-06 08:24:00,29.7,24.0,30.07,NW,313,6.0,10.1,79,0.00,,,0.00,VWS V14.01,2013-03-06 13:24:00,
2013-03-06 08:29:00,30.0,24.3,30.10,NNW,345,5.4,13.4,79,0.00,,,0.00,VWS V14.01,2013-03-06 13:29:00,
2013-03-06 08:34:00,30.2,24.5,30.10,NNW,332,5.4,11.2,79,0.00,,,0.00,VWS V14.01,2013-03-06 13:34:00,
2013-03-06 08:39:00,30.4,24.4,30.10,SSW,195,5.4,10.1,78,0.00,,,0.00,VWS V14.01,2013-03-06 13:39:00,
2013-03-06 08:45:00,30.4,24.4,30.10,NNW,344,4.7,13.4,78,0.00,,,0.00,VWS V14.01,2013-03-06 13:45:00,
2013-03-06 08:51:00,30.9,24.9,30.10,North,0,8.1,13.4,78,0.00,,,0.00,VWS V14.01,2013-03-06 13:51:00,
2013-03-06 08:57:00,31.5,25.4,30.10,North,349,9.4,15.7,78,0.00,,,0.00,VWS V14.01,2013-03-06 13:57:00,
2013-03-06 09:02:00,31.6,25.3,30.10,North,5,8.7,14.5,77,0.00,,,0.00,VWS V14.01,2013-03-06 14:02:00,
2013-03-06 09:08:00,32.0,25.6,30.10,North,0,5.4,12.3,77,0.00,,,0.00,VWS V14.01,2013-03-06 14:08:00,
2013-03-06 09:13:00,32.2,25.8,30.10,NNW,346,4.0,7.8,77,0.00,,,0.00,VWS V14.01,2013-03-06 14:13:00,
2013-03-06 09:19:00,32.5,25.8,30.10,NW,317,4.7,12.3,76,0.00,,,0.00,VWS V14.01,2013-03-06 14:19:00,
2013-03-06 09:26:00,32.7,26.0,30.10,North,353,5.4,14.5,76,0.00,,,0.00,VWS V14.01,2013-03-06 14:26:00,
2013-03-06 09:31:00,32.9,25.9,30.10,North,357,5.4,10.1,75,0.00,,,0.00,VWS V14.01,2013-03-06 14:31:00,
2013-03-06 09:37:00,33.1,25.7,30.10,North,9,5.4,10.1,74,0.00,,,0.00,VWS V14.01,2013-03-06 14:37:00,
2013-03-06 09:42:00,32.7,24.7,30.10,North,8,7.4,14.5,72,0.00,,,0.00,VWS V14.01,2013-03-06 14:42:00,
2013-03-06 09:48:00,32.7,24.0,30.10,North,11,8.1,13.4,70,0.00,,,0.00,VWS V14.01,2013-03-06 14:48:00,
2013-03-06 09:53:00,32.7,23.7,30.10,North,8,6.0,14.5,69,0.00,,,0.00,VWS V14.01,2013-03-06 14:53:00,
2013-03-06 09:58:00,33.1,24.0,30.10,North,6,7.4,13.4,69,0.00,,,0.00,VWS V14.01,2013-03-06 14:58:00,
2013-03-06 10:03:00,33.1,24.0,30.10,NNE,18,6.0,10.1,69,0.00,,,0.00,VWS V14.01,2013-03-06 15:03:00,
2013-03-06 10:09:00,33.8,24.4,30.10,North,5,5.4,10.1,68,0.00,,,0.00,VWS V14.01,2013-03-06 15:09:00,
2013-03-06 10:14:00,34.5,25.1,30.10,North,353,6.0,12.3,68,0.00,,,0.00,VWS V14.01,2013-03-06 15:14:00,
2013-03-06 10:19:00,34.5,24.7,30.10,North,357,4.0,8.9,67,0.00,,,0.00,VWS V14.01,2013-03-06 15:19:00,
2013-03-06 10:26:00,34.2,23.3,30.10,North,357,7.4,21.8,64,0.00,,,0.00,VWS V14.01,2013-03-06 15:26:00,
2013-03-06 10:31:00,34.3,23.1,30.13,North,357,9.4,20.1,63,0.00,,,0.00,VWS V14.01,2013-03-06 15:31:00,
2013-03-06 10:37:00,34.5,22.9,30.13,North,9,8.1,13.4,62,0.00,,,0.00,VWS V14.01,2013-03-06 15:37:00,
2013-03-06 10:43:00,34.7,22.2,30.13,NNE,24,9.4,24.0,60,0.00,,,0.00,VWS V14.01,2013-03-06 15:43:00,
2013-03-06 10:49:00,35.1,22.6,30.13,North,353,8.7,14.5,60,0.00,,,0.00,VWS V14.01,2013-03-06 15:49:00,
2013-03-06 10:55:00,35.4,22.5,30.13,North,0,7.4,13.4,59,0.00,,,0.00,VWS V14.01,2013-03-06 15:55:00,
2013-03-06 11:01:00,35.6,21.9,30.13,NE,45,0.0,8.9,57,0.00,,,0.00,VWS V14.01,2013-03-06 16:01:00,
2013-03-06 11:06:00,35.6,21.5,30.13,NNE,22,4.7,14.5,56,0.00,,,0.00,VWS V14.01,2013-03-06 16:06:00,
2013-03-06 11:11:00,35.8,21.6,30.13,North,5,8.1,13.4,56,0.00,,,0.00,VWS V14.01,2013-03-06 16:11:00,
2013-03-06 11:16:00,36.3,22.1,30.13,North,2,7.4,14.5,56,0.00,,,0.00,VWS V14.01,2013-03-06 16:16:00,
2013-03-06 11:22:00,36.7,22.5,30.13,North,4,5.4,10.1,56,0.00,,,0.00,VWS V14.01,2013-03-06 16:22:00,
2013-03-06 11:27:00,37.6,22.9,30.13,North,10,5.4,12.3,55,0.00,,,0.00,VWS V14.01,2013-03-06 16:27:00,
2013-03-06 11:32:00,37.9,23.2,30.13,North,0,9.4,15.7,55,0.00,,,0.00,VWS V14.01,2013-03-06 16:32:00,
2013-03-06 11:38:00,37.2,21.2,30.13,North,5,8.1,19.0,52,0.00,,,0.00,VWS V14.01,2013-03-06 16:38:00,
2013-03-06 11:44:00,37.9,21.9,30.16,North,2,5.4,13.4,52,0.00,,,0.00,VWS V14.01,2013-03-06 16:44:00,
2013-03-06 11:51:00,37.9,21.4,30.16,North,2,6.0,12.3,51,0.00,,,0.00,VWS V14.01,2013-03-06 16:51:00,
2013-03-06 11:56:00,38.5,21.5,30.16,NNE,25,8.1,13.4,50,0.00,,,0.00,VWS V14.01,2013-03-06 16:56:00,
2013-03-06 12:01:00,38.7,21.6,30.16,North,4,6.0,13.4,50,0.00,,,0.00,VWS V14.01,2013-03-06 17:01:00,
2013-03-06 12:07:00,38.8,21.8,30.16,ENE,59,4.7,12.3,50,0.00,,,0.00,VWS V14.01,2013-03-06 17:07:00,
2013-03-06 12:12:00,39.2,21.7,30.16,North,3,3.4,8.9,49,0.00,,,0.00,VWS V14.01,2013-03-06 17:12:00,
2013-03-06 12:18:00,40.3,22.7,30.16,North,6,7.4,14.5,49,0.00,,,0.00,VWS V14.01,2013-03-06 17:18:00,
2013-03-06 12:23:00,40.6,23.5,30.16,North,0,4.7,8.9,50,0.00,,,0.00,VWS V14.01,2013-03-06 17:23:00,
2013-03-06 12:29:00,41.0,22.8,30.16,North,2,5.4,10.1,48,0.00,,,0.00,VWS V14.01,2013-03-06 17:29:00,
2013-03-06 12:34:00,41.7,23.5,30.16,NNE,25,6.0,10.1,48,0.00,,,0.00,VWS V14.01,2013-03-06 17:34:00,
2013-03-06 12:39:00,40.8,22.2,30.16,North,0,8.1,13.4,47,0.00,,,0.00,VWS V14.01,2013-03-06 17:39:00,
2013-03-06 12:44:00,41.2,23.0,30.16,North,357,4.0,8.9,48,0.00,,,0.00,VWS V14.01,2013-03-06 17:44:00,
2013-03-06 12:49:00,42.4,24.6,30.16,NW,313,4.7,8.9,49,0.00,,,0.00,VWS V14.01,2013-03-06 17:49:00,
2013-03-06 12:54:00,42.3,24.0,30.16,North,1,6.0,10.1,48,0.04,,,0.04,VWS V14.01,2013-03-06 17:54:00,
2013-03-06 13:00:00,43.0,24.6,30.16,North,2,6.0,10.1,48,0.04,,,0.04,VWS V14.01,2013-03-06 18:00:00,
2013-03-06 13:06:00,42.3,21.9,30.16,North,4,4.7,10.1,44,0.04,,,0.04,VWS V14.01,2013-03-06 18:06:00,
2013-03-06 13:12:00,42.1,22.3,30.16,North,2,5.4,10.1,45,0.08,,,0.08,VWS V14.01,2013-03-06 18:12:00,
2013-03-06 13:17:00,42.3,22.5,30.16,North,4,3.4,7.8,45,0.08,,,0.08,VWS V14.01,2013-03-06 18:17:00,
2013-03-06 13:23:00,42.1,21.8,30.16,North,8,5.4,8.9,44,0.08,,,0.08,VWS V14.01,2013-03-06 18:23:00,
2013-03-06 13:28:00,43.0,23.1,30.16,North,0,4.0,7.8,45,0.08,,,0.08,VWS V14.01,2013-03-06 18:28:00,
2013-03-06 13:33:00,42.1,21.2,30.16,North,6,4.7,10.1,43,0.08,,,0.08,VWS V14.01,2013-03-06 18:33:00,
2013-03-06 13:38:00,43.0,22.6,30.16,North,0,4.7,8.9,44,0.12,,,0.12,VWS V14.01,2013-03-06 18:38:00,
2013-03-06 13:43:00,43.7,24.3,30.16,NW,326,3.4,8.9,46,0.12,,,0.12,VWS V14.01,2013-03-06 18:43:00,
2013-03-06 13:49:00,42.8,22.4,30.16,NNW,342,4.0,8.9,44,0.12,,,0.12,VWS V14.01,2013-03-06 18:49:00,
2013-03-06 13:55:00,43.2,23.3,30.16,North,0,5.4,8.9,45,0.08,,,0.12,VWS V14.01,2013-03-06 18:55:00,
2013-03-06 14:01:00,41.7,20.9,30.16,North,4,4.0,10.1,43,0.08,,,0.12,VWS V14.01,2013-03-06 19:01:00,
2013-03-06 14:06:00,41.7,21.4,30.16,North,9,4.0,8.9,44,0.08,,,0.12,VWS V14.01,2013-03-06 19:06:00,
2013-03-06 14:12:00,42.4,22.1,30.16,North,0,6.0,10.1,44,0.08,,,0.12,VWS V14.01,2013-03-06 19:12:00,
2013-03-06 14:17:00,42.3,22.5,30.16,North,353,4.0,8.9,45,0.04,,,0.12,VWS V14.01,2013-03-06 19:17:00,
2013-03-06 14:22:00,41.7,20.9,30.16,NNE,24,4.0,10.1,43,0.04,,,0.12,VWS V14.01,2013-03-06 19:22:00,
2013-03-06 14:27:00,41.2,20.9,30.16,North,0,0.0,5.6,44,0.04,,,0.12,VWS V14.01,2013-03-06 19:27:00,
2013-03-06 14:32:00,41.7,22.5,30.16,North,0,4.0,7.8,46,0.04,,,0.12,VWS V14.01,2013-03-06 19:32:00,
2013-03-06 14:38:00,42.4,23.6,30.16,North,1,4.0,7.8,47,0.00,,,0.12,VWS V14.01,2013-03-06 19:38:00,
2013-03-06 14:43:00,42.3,23.5,30.16,NNW,341,0.0,0.0,47,0.00,,,0.12,VWS V14.01,2013-03-06 19:43:00,
2013-03-06 14:49:00,41.7,22.5,30.16,North,2,4.0,8.9,46,0.00,,,0.12,VWS V14.01,2013-03-06 19:49:00,
2013-03-06 14:54:00,41.2,21.5,30.16,North,357,0.0,6.7,45,0.00,,,0.12,VWS V14.01,2013-03-06 19:54:00,
2013-03-06 14:59:00,40.8,21.7,30.16,North,2,5.4,10.1,46,0.00,,,0.12,VWS V14.01,2013-03-06 19:59:00,
2013-03-06 15:04:00,41.0,21.8,30.16,North,8,5.4,8.9,46,0.00,,,0.12,VWS V14.01,2013-03-06 20:04:00,
2013-03-06 15:11:00,41.2,22.5,30.16,NW,326,0.0,6.7,47,0.00,,,0.12,VWS V14.01,2013-03-06 20:11:00,
2013-03-06 15:16:00,41.0,22.8,30.16,WNW,299,6.0,10.1,48,0.00,,,0.12,VWS V14.01,2013-03-06 20:16:00,
2013-03-06 15:22:00,40.6,23.0,30.16,WNW,302,6.0,12.3,49,0.00,,,0.12,VWS V14.01,2013-03-06 20:22:00,
2013-03-06 15:27:00,40.1,22.5,30.16,WNW,303,8.1,13.4,49,0.00,,,0.12,VWS V14.01,2013-03-06 20:27:00,
2013-03-06 15:32:00,39.9,22.3,30.16,WNW,303,4.0,8.9,49,0.00,,,0.12,VWS V14.01,2013-03-06 20:32:00,
2013-03-06 15:38:00,39.9,22.3,30.16,NNW,327,4.0,8.9,49,0.00,,,0.12,VWS V14.01,2013-03-06 20:38:00,
2013-03-06 15:43:00,40.1,22.5,30.16,NW,314,0.0,7.8,49,0.00,,,0.12,VWS V14.01,2013-03-06 20:43:00,
2013-03-06 15:48:00,40.3,23.1,30.16,NW,321,3.4,8.9,50,0.00,,,0.12,VWS V14.01,2013-03-06 20:48:00,
2013-03-06 15:53:00,39.9,22.3,30.16,NW,310,4.0,8.9,49,0.00,,,0.12,VWS V14.01,2013-03-06 20:53:00,
2013-03-06 15:59:00,39.4,22.3,30.16,NW,320,3.4,7.8,50,0.00,,,0.12,VWS V14.01,2013-03-06 20:59:00,
2013-03-06 16:04:00,39.4,22.3,30.16,NW,321,4.0,6.7,50,0.00,,,0.12,VWS V14.01,2013-03-06 21:04:00,
2013-03-06 16:11:00,39.4,22.3,30.16,North,0,0.0,10.1,50,0.00,,,0.12,VWS V14.01,2013-03-06 21:11:00,
2013-03-06 16:17:00,39.2,22.1,30.16,NNW,331,4.0,6.7,50,0.00,,,0.12,VWS V14.01,2013-03-06 21:17:00,
2013-03-06 16:23:00,38.8,22.3,30.16,NNW,328,4.7,7.8,51,0.00,,,0.12,VWS V14.01,2013-03-06 21:23:00,
2013-03-06 16:28:00,38.8,22.3,30.16,WNW,297,0.0,8.9,51,0.00,,,0.12,VWS V14.01,2013-03-06 21:28:00,
2013-03-06 16:33:00,38.5,21.9,30.16,NW,305,4.0,6.7,51,0.00,,,0.12,VWS V14.01,2013-03-06 21:33:00,
2013-03-06 16:38:00,37.9,21.4,30.16,NNW,343,3.4,10.1,51,0.00,,,0.12,VWS V14.01,2013-03-06 21:38:00,
2013-03-06 16:44:00,37.6,21.6,30.16,NW,307,5.4,8.9,52,0.00,,,0.12,VWS V14.01,2013-03-06 21:44:00,
2013-03-06 16:49:00,37.4,21.4,30.16,NW,318,4.0,7.8,52,0.00,,,0.12,VWS V14.01,2013-03-06 21:49:00,
2013-03-06 16:54:00,37.0,21.1,30.16,NW,306,4.7,8.9,52,0.00,,,0.12,VWS V14.01,2013-03-06 21:54:00,
2013-03-06 16:59:00,36.9,21.3,30.19,NW,314,4.0,6.7,53,0.00,,,0.12,VWS V14.01,2013-03-06 21:59:00,
2013-03-06 17:05:00,36.7,21.6,30.19,NW,321,4.7,7.8,54,0.00,,,0.12,VWS V14.01,2013-03-06 22:05:00,
2013-03-06 17:11:00,36.3,21.3,30.19,WNW,303,4.0,7.8,54,0.00,,,0.12,VWS V14.01,2013-03-06 22:11:00,
2013-03-06 17:16:00,36.1,21.1,30.19,WNW,293,4.0,10.1,54,0.00,,,0.12,VWS V14.01,2013-03-06 22:16:00,
2013-03-06 17:22:00,36.0,21.0,30.19,WNW,301,6.0,10.1,54,0.00,,,0.12,VWS V14.01,2013-03-06 22:22:00,
2013-03-06 17:28:00,35.8,21.2,30.19,WNW,300,4.0,10.1,55,0.00,,,0.12,VWS V14.01,2013-03-06 22:28:00,
2013-03-06 17:34:00,35.4,21.3,30.19,NW,310,4.0,7.8,56,0.00,,,0.12,VWS V14.01,2013-03-06 22:34:00,
2013-03-06 17:41:00,35.4,21.3,30.19,NW,307,4.0,8.9,56,0.00,,,0.12,VWS V14.01,2013-03-06 22:41:00,
2013-03-06 17:47:00,35.1,21.0,30.19,NW,308,4.7,7.8,56,0.00,,,0.12,VWS V14.01,2013-03-06 22:47:00,
2013-03-06 17:52:00,34.9,21.2,30.19,WNW,301,4.0,8.9,57,0.00,,,0.12,VWS V14.01,2013-03-06 22:52:00,
2013-03-06 17:58:00,34.7,21.0,30.19,WNW,301,4.7,7.8,57,0.00,,,0.12,VWS V14.01,2013-03-06 22:58:00,
2013-03-06 18:04:00,34.5,20.9,30.19,WNW,292,4.7,8.9,57,0.00,,,0.12,VWS V14.01,2013-03-06 23:04:00,
2013-03-06 18:09:00,34.5,21.3,30.19,WNW,293,5.4,8.9,58,0.00,,,0.12,VWS V14.01,2013-03-06 23:09:00,
2013-03-06 18:16:00,34.3,21.1,30.19,NW,305,4.0,7.8,58,0.00,,,0.12,VWS V14.01,2013-03-06 23:16:00,
2013-03-06 18:21:00,34.2,20.9,30.19,WNW,301,4.7,7.8,58,0.00,,,0.12,VWS V14.01,2013-03-06 23:21:00,
2013-03-06 18:27:00,34.0,21.2,30.19,NW,305,0.0,10.1,59,0.00,,,0.12,VWS V14.01,2013-03-06 23:27:00,
2013-03-06 18:32:00,33.8,21.0,30.19,WNW,288,4.7,7.8,59,0.00,,,0.12,VWS V14.01,2013-03-06 23:32:00,
2013-03-06 18:37:00,33.8,21.0,30.19,WNW,294,0.0,8.9,59,0.00,,,0.12,VWS V14.01,2013-03-06 23:37:00,
2013-03-06 18:42:00,33.6,21.2,30.19,WNW,299,4.0,6.7,60,0.00,,,0.12,VWS V14.01,2013-03-06 23:42:00,
2013-03-06 18:47:00,33.6,21.2,30.19,WNW,289,4.0,7.8,60,0.00,,,0.12,VWS V14.01,2013-03-06 23:47:00,
2013-03-06 18:52:00,33.4,21.5,30.19,WNW,295,0.0,5.6,61,0.00,,,0.12,VWS V14.01,2013-03-06 23:52:00,
2013-03-06 18:58:00,33.4,21.5,30.22,NW,307,0.0,8.9,61,0.00,,,0.12,VWS V14.01,2013-03-06 23:58:00,
2013-03-06 19:03:00,33.4,21.8,30.22,WNW,301,0.0,6.7,62,0.00,,,0.12,VWS V14.01,2013-03-07 00:03:00,
2013-03-06 19:09:00,33.3,21.7,30.22,NW,322,0.0,0.0,62,0.00,,,0.12,VWS V14.01,2013-03-07 00:09:00,
2013-03-06 19:14:00,33.3,21.7,30.22,NW,322,0.0,0.0,62,0.00,,,0.12,VWS V14.01,2013-03-07 00:14:00,
2013-03-06 19:19:00,33.3,22.0,30.22,WNW,296,0.0,0.0,63,0.00,,,0.12,VWS V14.01,2013-03-07 00:19:00,
2013-03-06 19:26:00,33.3,22.0,30.22,WNW,297,0.0,0.0,63,0.00,,,0.12,VWS V14.01,2013-03-07 00:26:00,
2013-03-06 19:32:00,33.1,21.9,30.22,WNW,296,0.0,0.0,63,0.00,,,0.12,VWS V14.01,2013-03-07 00:32:00,
2013-03-06 19:37:00,33.1,22.2,30.22,WNW,296,0.0,0.0,64,0.00,,,0.12,VWS V14.01,2013-03-07 00:37:00,
2013-03-06 19:43:00,33.1,22.2,30.22,WNW,296,0.0,0.0,64,0.00,,,0.12,VWS V14.01,2013-03-07 00:43:00,
2013-03-06 19:49:00,33.1,22.2,30.22,WNW,296,0.0,0.0,64,0.00,,,0.12,VWS V14.01,2013-03-07 00:49:00,
2013-03-06 19:54:00,32.9,22.1,30.22,WNW,297,0.0,0.0,64,0.00,,,0.12,VWS V14.01,2013-03-07 00:54:00,
2013-03-06 19:59:00,32.9,22.4,30.22,WNW,300,0.0,0.0,65,0.00,,,0.12,VWS V14.01,2013-03-07 00:59:00,
2013-03-06 20:04:00,32.9,22.4,30.22,WNW,300,0.0,0.0,65,0.00,,,0.12,VWS V14.01,2013-03-07 01:04:00,
2013-03-06 20:09:00,32.9,22.4,30.22,WNW,300,0.0,0.0,65,0.00,,,0.12,VWS V14.01,2013-03-07 01:09:00,
2013-03-06 20:14:00,32.9,22.4,30.22,WNW,300,0.0,0.0,65,0.00,,,0.12,VWS V14.01,2013-03-07 01:14:00,
2013-03-06 20:19:00,32.7,22.6,30.22,WNW,300,0.0,0.0,66,0.00,,,0.12,VWS V14.01,2013-03-07 01:19:00,
2013-03-06 20:24:00,32.7,22.6,30.22,WNW,300,0.0,0.0,66,0.00,,,0.12,VWS V14.01,2013-03-07 01:24:00,
2013-03-06 20:30:00,32.7,22.6,30.22,WNW,300,0.0,0.0,66,99.99,,,99.99,VWS V14.01,2013-03-07 01:30:00,
2013-03-06 20:36:00,32.7,22.6,30.22,WNW,300,0.0,0.0,66,0.00,,,0.12,VWS V14.01,2013-03-07 01:36:00,
2013-03-06 20:41:00,32.7,23.0,30.22,WNW,300,0.0,0.0,67,0.00,,,0.12,VWS V14.01,2013-03-07 01:41:00,
2013-03-06 20:46:00,32.7,23.0,30.22,WNW,300,0.0,0.0,67,0.00,,,0.12,VWS V14.01,2013-03-07 01:46:00,
2013-03-06 20:51:00,32.5,22.8,30.22,WNW,300,0.0,0.0,67,0.00,,,0.12,VWS V14.01,2013-03-07 01:51:00,
2013-03-06 20:57:00,32.5,22.8,30.22,WNW,300,0.0,0.0,67,0.00,,,0.12,VWS V14.01,2013-03-07 01:57:00,
2013-03-06 21:02:00,32.5,23.2,30.22,WNW,300,0.0,0.0,68,0.00,,,0.12,VWS V14.01,2013-03-07 02:02:00,
2013-03-06 21:07:00,32.5,23.2,30.22,WNW,300,0.0,0.0,68,0.00,,,0.12,VWS V14.01,2013-03-07 02:07:00,
2013-03-06 21:12:00,32.5,23.2,30.22,WNW,300,0.0,0.0,68,0.00,,,0.12,VWS V14.01,2013-03-07 02:12:00,
2013-03-06 21:18:00,32.5,23.5,30.22,WNW,300,0.0,0.0,69,0.00,,,0.12,VWS V14.01,2013-03-07 02:18:00,
2013-03-06 21:24:00,32.4,23.3,30.22,WNW,300,0.0,0.0,69,0.00,,,0.12,VWS V14.01,2013-03-07 02:24:00,
2013-03-06 21:31:00,32.4,23.7,30.22,WNW,300,0.0,0.0,70,0.00,,,0.12,VWS V14.01,2013-03-07 02:31:00,
2013-03-06 21:36:00,32.4,23.7,30.22,WNW,300,0.0,0.0,70,0.00,,,0.12,VWS V14.01,2013-03-07 02:36:00,
2013-03-06 21:41:00,32.4,23.7,30.22,WNW,300,0.0,0.0,70,0.00,,,0.12,VWS V14.01,2013-03-07 02:41:00,
2013-03-06 21:46:00,32.4,23.7,30.22,WNW,300,0.0,0.0,70,0.00,,,0.12,VWS V14.01,2013-03-07 02:46:00,
2013-03-06 21:52:00,32.4,23.7,30.22,WNW,300,0.0,0.0,70,99.99,,,99.99,VWS V14.01,2013-03-07 02:52:00,
2013-03-06 21:57:00,32.4,24.0,30.25,WNW,300,0.0,0.0,71,0.00,,,0.12,VWS V14.01,2013-03-07 02:57:00,
2013-03-06 22:02:00,32.4,24.0,30.25,WNW,300,0.0,0.0,71,0.00,,,0.12,VWS V14.01,2013-03-07 03:02:00,
2013-03-06 22:08:00,32.4,24.0,30.25,WNW,292,0.0,0.0,71,0.00,,,0.12,VWS V14.01,2013-03-07 03:08:00,
2013-03-06 22:13:00,32.4,24.0,30.22,WNW,292,0.0,0.0,71,0.00,,,0.12,VWS V14.01,2013-03-07 03:13:00,
2013-03-06 22:18:00,32.4,24.0,30.22,WNW,292,0.0,0.0,71,0.00,,,0.12,VWS V14.01,2013-03-07 03:18:00,
2013-03-06 22:23:00,32.4,24.0,30.22,WNW,292,0.0,0.0,71,0.00,,,0.12,VWS V14.01,2013-03-07 03:23:00,
2013-03-06 22:28:00,32.4,24.0,30.25,WNW,292,0.0,0.0,71,0.00,,,0.12,VWS V14.01,2013-03-07 03:28:00,
2013-03-06 22:34:00,32.4,24.4,30.25,NW,304,5.4,8.9,72,0.00,,,0.12,VWS V14.01,2013-03-07 03:34:00,
2013-03-06 22:41:00,32.4,24.4,30.22,WNW,303,4.0,6.7,72,0.00,,,0.12,VWS V14.01,2013-03-07 03:41:00,
2013-03-06 22:46:00,32.4,24.4,30.22,WNW,303,0.0,0.0,72,0.00,,,0.12,VWS V14.01,2013-03-07 03:46:00,
2013-03-06 22:51:00,32.4,24.4,30.22,WNW,303,0.0,0.0,72,0.00,,,0.12,VWS V14.01,2013-03-07 03:51:00,
2013-03-06 22:56:00,32.4,24.4,30.22,WNW,303,4.7,7.8,72,0.00,,,0.12,VWS V14.01,2013-03-07 03:56:00,
2013-03-06 23:02:00,32.4,24.4,30.22,WNW,303,4.0,6.7,72,0.00,,,0.12,VWS V14.01,2013-03-07 04:02:00,
2013-03-06 23:07:00,32.4,24.7,30.22,WNW,303,3.4,8.9,73,0.00,,,0.12,VWS V14.01,2013-03-07 04:07:00,
2013-03-06 23:12:00,32.4,24.7,30.25,WNW,303,0.0,0.0,73,0.00,,,0.12,VWS V14.01,2013-03-07 04:12:00,
2013-03-06 23:18:00,32.4,24.7,30.25,WNW,303,0.0,0.0,73,0.00,,,0.12,VWS V14.01,2013-03-07 04:18:00,
2013-03-06 23:23:00,32.4,24.7,30.25,WNW,303,0.0,0.0,73,0.00,,,0.12,VWS V14.01,2013-03-07 04:23:00,
2013-03-06 23:29:00,32.2,24.5,30.25,WNW,303,4.0,6.7,73,0.00,,,0.12,VWS V14.01,2013-03-07 04:29:00,
2013-03-06 23:34:00,32.2,24.5,30.25,WNW,303,4.0,7.8,73,0.00,,,0.12,VWS V14.01,2013-03-07 04:34:00,
2013-03-06 23:39:00,32.2,24.5,30.25,WNW,303,4.0,7.8,73,0.00,,,0.12,VWS V14.01,2013-03-07 04:39:00,
2013-03-06 23:44:00,32.2,24.8,30.25,WNW,303,5.4,8.9,74,0.00,,,0.12,VWS V14.01,2013-03-07 04:44:00,
2013-03-06 23:50:00,32.2,24.8,30.25,WNW,303,4.0,7.8,74,0.00,,,0.12,VWS V14.01,2013-03-07 04:50:00,
2013-03-06 23:56:00,32.2,24.8,30.25,WNW,303,0.0,0.0,74,0.00,,,0.12,VWS V14.01,2013-03-07 04:56:00,